Time;durP1;ratioP1;P1;durP2;ratioP2;P2;SDS_P1;SDS_P2;PMS_P1;PMS_P2;Temp;Humidity;BMP_temperature;BMP_pressure;BME280_temperature;BME280_humidity;BME280_pressure;Samples;Min_cycle;Max_cycle;Signal;HPM_P1;HPM_P2
2022/07/17 00:02:11;;;;;;;;;2.75;2.00;;;;;23.36;33.58;102165.72;5077920;28;62219;-91
2022/07/17 00:04:38;;;;;;;;;1.75;1.75;;;;;23.33;34.13;102174.75;5061752;28;45479;-91
2022/07/17 00:07:03;;;;;;;;;2.75;2.75;;;;;23.31;33.65;102173.13;5078564;28;45577;-92
2022/07/17 00:09:29;;;;;;;;;3.00;2.75;;;;;23.30;33.71;102166.97;5077398;28;66208;-92
2022/07/17 00:11:54;;;;;;;;;3.00;3.00;;;;;23.27;33.69;102164.50;5079151;28;49951;-92
2022/07/17 00:14:19;;;;;;;;;4.00;2.75;;;;;23.23;34.11;102162.94;5078004;28;45290;-92
2022/07/17 00:16:45;;;;;;;;;4.25;1.75;;;;;23.19;34.15;102161.44;5078441;27;45325;-91
2022/07/17 00:19:10;;;;;;;;;2.00;1.75;;;;;23.17;34.10;102166.84;5078447;28;47089;-92
2022/07/17 00:21:35;;;;;;;;;2.75;2.75;;;;;23.13;34.55;102170.63;5077797;28;59850;-93
2022/07/17 00:24:01;;;;;;;;;1.75;1.75;;;;;23.08;34.96;102172.69;5061634;28;45345;-93
2022/07/17 00:26:26;;;;;;;;;2.00;2.00;;;;;23.06;34.40;102176.41;5060742;28;64085;-93
2022/07/17 00:28:52;;;;;;;;;4.00;3.75;;;;;23.02;34.75;102170.38;5060958;28;47186;-93
2022/07/17 00:31:17;;;;;;;;;1.75;1.75;;;;;22.99;34.31;102173.19;5065380;28;59510;-93
2022/07/17 00:33:42;;;;;;;;;3.00;3.00;;;;;;;;5058773;28;45290;-92
2022/07/17 00:36:07;;;;;;;;;3.33;3.33;;;;;22.92;34.79;102174.50;5077818;28;45432;-93
2022/07/17 00:38:33;;;;;;;;;3.25;1.75;;;;;22.89;34.90;102172.91;5060249;28;68355;-92
2022/07/17 00:40:59;;;;;;;;;2.25;2.25;;;;;22.86;34.55;102175.72;5058397;28;45377;-93
2022/07/17 00:43:25;;;;;;;;;3.25;1.75;;;;;22.83;34.83;102175.91;5057924;28;45515;-93
2022/07/17 00:45:58;;;;;;;;;2.75;2.50;;;;;22.80;35.06;102171.63;5057937;28;45382;-92
2022/07/17 00:48:23;;;;;;;;;2.75;2.75;;;;;22.78;35.60;102162.03;5057470;28;48646;-92
2022/07/17 00:50:49;;;;;;;;;3.50;2.50;;;;;22.77;35.38;102168.28;5056668;28;66786;-93
2022/07/17 00:53:14;;;;;;;;;2.25;1.75;;;;;22.75;35.45;102165.75;5057598;28;45382;-93
2022/07/17 00:55:40;;;;;;;;;2.50;2.50;;;;;22.73;35.21;102172.94;5057758;28;50825;-92
2022/07/17 00:58:07;;;;;;;;;2.75;2.75;;;;;22.68;35.30;102171.47;5057588;28;47492;-94
2022/07/17 01:00:33;;;;;;;;;2.25;2.25;;;;;22.69;35.29;102175.84;5057830;28;45461;-93
2022/07/17 01:02:58;;;;;;;;;2.75;2.75;;;;;22.65;35.49;102175.16;5058443;28;45345;-93
2022/07/17 01:05:24;;;;;;;;;4.50;2.25;;;;;22.63;35.80;102179.72;5056516;28;45240;-93
2022/07/17 01:07:50;;;;;;;;;2.00;2.00;;;;;22.59;35.30;102176.38;5057511;28;48301;-92
2022/07/17 01:10:16;;;;;;;;;5.75;2.25;;;;;22.55;35.92;102184.63;5057626;28;45464;-93
2022/07/17 01:12:42;;;;;;;;;2.75;2.00;;;;;22.54;36.33;102180.22;5057617;28;45388;-94
2022/07/17 01:15:08;;;;;;;;;3.50;1.50;;;;;22.50;35.95;102179.56;5057466;28;45796;-93
2022/07/17 01:17:34;;;;;;;;;4.00;2.00;;;;;22.47;35.81;102168.25;5074065;28;47565;-93
2022/07/17 01:20:01;;;;;;;;;3.00;2.50;;;;;22.42;36.03;102172.03;5057158;28;45447;-93
2022/07/17 01:22:26;;;;;;;;;3.25;1.50;;;;;22.39;36.35;102174.00;5057203;28;45391;-94
2022/07/17 01:24:51;;;;;;;;;2.50;2.50;;;;;22.36;35.99;102176.81;5056690;28;50049;-94
2022/07/17 01:27:17;;;;;;;;;2.75;2.50;;;;;22.34;36.10;102176.91;5056603;28;47226;-93
2022/07/17 01:29:42;;;;;;;;;2.25;2.25;;;;;22.30;36.00;102171.84;5058193;28;45319;-93
2022/07/17 01:32:08;;;;;;;;;3.00;3.00;;;;;22.24;36.22;102175.69;5072961;28;45231;-93
2022/07/17 01:34:33;;;;;;;;;2.50;2.50;;;;;22.22;36.77;102173.09;5073818;27;45253;-94
2022/07/17 01:36:58;;;;;;;;;2.25;2.00;;;;;22.23;36.19;102177.47;5056841;28;47202;-93
2022/07/17 01:42:08;;;;;;;;;4.00;2.25;;;;;22.16;36.63;102168.16;5071060;28;45429;-94
2022/07/17 01:44:33;;;;;;;;;2.25;2.25;;;;;22.12;36.63;102165.72;5039894;28;45228;-93
2022/07/17 01:46:59;;;;;;;;;4.00;3.25;;;;;22.12;36.47;102171.03;5073379;28;45362;-93
2022/07/17 01:49:24;;;;;;;;;2.00;2.00;;;;;22.09;36.58;102172.06;5056390;28;45691;-94
2022/07/17 01:51:50;;;;;;;;;3.50;3.00;;;;;22.05;36.70;102170.53;5056749;28;45350;-93
2022/07/17 01:54:15;;;;;;;;;1.75;1.75;;;;;22.02;36.74;102162.75;5073428;28;45246;-93
2022/07/17 01:56:40;;;;;;;;;2.75;2.75;;;;;21.99;37.20;102163.78;5055968;28;47146;-93
2022/07/17 01:59:06;;;;;;;;;2.00;2.00;;;;;21.97;37.10;102160.34;5056787;28;45811;-93
2022/07/17 02:01:31;;;;;;;;;5.25;3.00;;;;;21.93;36.78;102153.50;5039552;28;46595;-92
2022/07/17 02:03:57;;;;;;;;;5.00;2.00;;;;;21.92;36.91;102150.94;5056632;28;47167;-93
2022/07/17 02:06:22;;;;;;;;;3.00;3.00;;;;;21.89;36.83;102151.09;5056188;28;45306;-92
2022/07/17 02:08:50;;;;;;;;;3.00;3.00;;;;;21.82;36.86;102151.44;5038792;28;62780;-93
2022/07/17 02:11:16;;;;;;;;;5.00;3.00;;;;;21.80;36.94;102155.09;5073102;28;45445;-93
2022/07/17 02:13:41;;;;;;;;;3.00;3.00;;;;;21.76;37.91;102151.75;5057430;28;45411;-94
2022/07/17 02:16:07;;;;;;;;;2.75;2.25;;;;;21.72;36.75;102149.38;5054863;28;72649;-93
2022/07/17 02:18:32;;;;;;;;;3.00;3.00;;;;;21.68;37.71;102148.69;5056365;28;47314;-93
2022/07/17 02:20:58;;;;;;;;;1.50;1.50;;;;;21.65;37.69;102151.47;5055826;28;51825;-92
2022/07/17 02:23:23;;;;;;;;;3.00;3.00;;;;;21.61;37.61;102147.28;5056000;28;50596;-93
2022/07/17 02:25:48;;;;;;;;;4.00;3.00;;;;;21.56;37.64;102147.53;5072543;27;46403;-93
2022/07/17 02:28:14;;;;;;;;;3.25;2.25;;;;;21.54;37.73;102143.25;5073060;27;45472;-93
2022/07/17 02:30:39;;;;;;;;;3.00;3.00;;;;;21.52;37.67;102142.47;5056081;28;45408;-93
2022/07/17 02:33:04;;;;;;;;;3.75;2.25;;;;;21.49;37.81;102154.09;5055940;28;48543;-92
2022/07/17 02:35:30;;;;;;;;;2.00;2.00;;;;;21.44;38.07;102150.78;5039083;28;47111;-93
2022/07/17 02:37:56;;;;;;;;;3.75;3.00;;;;;21.41;38.39;102149.19;5039611;28;45402;-92
2022/07/17 02:40:22;;;;;;;;;2.00;2.00;;;;;21.39;37.90;102153.66;5055385;28;61043;-92
2022/07/17 02:42:47;;;;;;;;;4.00;4.00;;;;;21.34;38.09;102149.56;5056268;28;45473;-93
2022/07/17 02:45:12;;;;;;;;;6.00;4.00;;;;;21.30;38.10;102148.84;5056243;28;46476;-93
2022/07/17 02:47:38;;;;;;;;;4.00;4.00;;;;;21.26;38.40;102142.00;5038590;28;65890;-93
2022/07/17 02:50:05;;;;;;;;;3.25;3.25;;;;;21.25;38.20;102137.66;5056230;28;45373;-93
2022/07/17 02:52:30;;;;;;;;;2.50;2.00;;;;;21.21;37.85;102141.38;5057159;28;45348;-91
2022/07/17 02:54:56;;;;;;;;;4.00;3.00;;;;;21.20;38.16;102144.97;5038415;28;59660;-93
2022/07/17 02:57:21;;;;;;;;;5.00;5.00;;;;;21.17;38.53;102143.34;5055560;28;58275;-92
2022/07/17 02:59:47;;;;;;;;;5.75;3.75;;;;;21.13;39.04;102147.06;5038876;28;45327;-92
2022/07/17 03:02:12;;;;;;;;;5.25;5.00;;;;;21.10;38.63;102149.91;5038957;28;45329;-92
2022/07/17 03:04:38;;;;;;;;;5.00;5.00;;;;;21.06;38.87;102148.31;5055590;28;45360;-93
2022/07/17 03:07:03;;;;;;;;;9.00;5.75;;;;;21.03;38.80;102143.19;5038506;28;45717;-92
2022/07/17 03:09:29;;;;;;;;;10.00;8.25;;;;;21.01;39.08;102151.22;5038110;28;52029;-92
2022/07/17 03:11:54;;;;;;;;;14.25;11.00;;;;;20.98;38.65;102139.91;5055065;28;59449;-93
2022/07/17 03:14:19;;;;;;;;;12.00;10.25;;;;;20.96;39.15;102142.66;5039021;28;48604;-92
2022/07/17 03:16:45;;;;;;;;;13.00;11.00;;;;;20.92;39.14;102133.16;5055738;28;45343;-93
2022/07/17 03:19:10;;;;;;;;;12.50;11.50;;;;;20.93;39.50;102137.53;5038882;28;45236;-92
2022/07/17 03:21:35;;;;;;;;;17.25;14.00;;;;;20.91;38.68;102138.50;5038872;28;50847;-92
2022/07/17 03:24:01;;;;;;;;;19.50;15.75;;;;;20.90;39.26;102147.41;5038112;28;57344;-93
2022/07/17 03:26:26;;;;;;;;;23.25;16.75;;;;;20.87;39.17;102143.09;5055973;28;52004;-93
2022/07/17 03:28:52;;;;;;;;;20.00;17.75;;;;;20.84;39.32;102151.22;5040010;28;45244;-93
2022/07/17 03:31:17;;;;;;;;;20.00;17.25;;;;;20.83;39.31;102154.78;5058812;28;45243;-94
2022/07/17 03:33:42;;;;;;;;;20.50;17.75;;;;;20.82;39.74;102153.06;5075257;27;61606;-92
2022/07/17 03:36:08;;;;;;;;;19.25;18.75;;;;;20.80;39.25;102157.56;5040932;28;64785;-92
2022/07/17 03:38:33;;;;;;;;;20.50;16.25;;;;;20.78;39.25;102159.44;5041638;28;45483;-93
2022/07/17 03:40:59;;;;;;;;;23.50;18.25;;;;;20.76;39.26;102164.81;5059328;28;45373;-92
2022/07/17 03:43:24;;;;;;;;;19.25;16.25;;;;;20.75;39.53;102163.09;5058744;28;47239;-93
2022/07/17 03:45:50;;;;;;;;;20.00;14.25;;;;;20.73;39.22;102167.63;5058603;28;45346;-93
2022/07/17 03:48:15;;;;;;;;;18.00;14.00;;;;;20.69;39.86;102172.19;5058897;28;45336;-93
2022/07/17 03:50:41;;;;;;;;;13.50;11.00;;;;;20.67;39.91;102178.47;5060017;28;45443;-92
2022/07/17 03:53:06;;;;;;;;;18.25;13.25;;;;;20.65;39.79;102169.75;5075125;27;52890;-93
2022/07/17 03:55:31;;;;;;;;;12.75;10.50;;;;;20.66;39.93;102179.44;5041910;28;45418;-93
2022/07/17 03:57:57;;;;;;;;;18.00;13.00;;;;;20.64;39.87;102176.00;5075330;28;51289;-93
2022/07/17 04:00:22;;;;;;;;;13.75;11.50;;;;;20.61;40.07;102158.47;5041550;28;60162;-93
2022/07/17 04:02:47;;;;;;;;;13.25;10.75;;;;;20.61;40.04;102161.13;5041025;28;68796;-93
2022/07/17 04:05:13;;;;;;;;;11.00;7.50;;;;;20.61;40.12;102160.28;5057857;28;69428;-93
2022/07/17 04:07:39;;;;;;;;;8.25;5.75;;;;;20.58;40.25;102153.31;5042724;28;45363;-93
2022/07/17 04:10:05;;;;;;;;;8.50;5.75;;;;;20.57;40.05;102156.03;5043885;28;45414;-93
2022/07/17 04:12:31;;;;;;;;;6.75;5.50;;;;;20.54;40.86;102161.47;5060136;28;45466;-93
2022/07/17 04:14:56;;;;;;;;;5.75;4.00;;;;;20.54;40.53;102162.34;5058754;28;45377;-93
2022/07/17 04:17:23;;;;;;;;;5.00;5.00;;;;;20.54;40.88;102166.75;5042249;28;45315;-93
2022/07/17 04:19:49;;;;;;;;;4.75;4.00;;;;;20.50;40.31;102166.91;5064418;28;45607;-92
2022/07/17 04:22:14;;;;;;;;;4.75;4.50;;;;;20.49;40.91;102181.06;5084020;28;45461;-93
2022/07/17 04:24:39;;;;;;;;;3.00;3.00;;;;;20.48;41.03;102181.13;5084890;28;44865;-93
2022/07/17 04:27:05;;;;;;;;;6.00;3.00;;;;;20.46;41.00;102190.94;5085049;28;44664;-94
2022/07/17 04:29:31;;;;;;;;;3.00;3.00;;;;;20.46;40.38;102191.78;5085651;28;44728;-93
2022/07/17 04:31:56;;;;;;;;;3.50;3.00;;;;;20.49;40.80;102202.22;5103317;27;50070;-94
2022/07/17 04:34:21;;;;;;;;;3.75;3.75;;;;;20.47;41.91;102196.16;5088308;27;57830;-93
2022/07/17 04:36:47;;;;;;;;;5.00;3.00;;;;;20.51;41.62;102204.81;5103272;27;51240;-93
2022/07/17 04:39:12;;;;;;;;;3.00;2.75;;;;;20.49;40.82;102199.56;5106024;27;44762;-93
2022/07/17 04:41:37;;;;;;;;;2.75;2.00;;;;;20.48;40.99;102205.78;5088726;27;47098;-93
2022/07/17 04:44:03;;;;;;;;;2.00;2.00;;;;;20.48;41.03;102220.81;5103104;27;44702;-93
2022/07/17 04:46:28;;;;;;;;;2.75;2.75;;;;;20.49;40.38;102227.81;5063213;27;45280;-92
2022/07/17 04:48:54;;;;;;;;;4.00;2.25;;;;;20.45;40.53;102232.41;5079608;28;49928;-93
2022/07/17 04:51:19;;;;;;;;;3.75;2.00;;;;;20.43;40.36;102225.44;5079137;28;49748;-92
2022/07/17 04:53:45;;;;;;;;;3.00;2.00;;;;;20.41;40.63;102233.47;5078937;27;61069;-92
2022/07/17 04:56:10;;;;;;;;;1.50;1.50;;;;;20.39;41.01;102224.75;5079011;28;55702;-93
2022/07/17 04:58:35;;;;;;;;;3.50;2.25;;;;;20.41;41.12;102230.84;5079409;27;45215;-93
2022/07/17 05:01:01;;;;;;;;;2.00;2.00;;;;;20.40;41.25;102223.81;5065294;28;49219;-93
2022/07/17 05:03:26;;;;;;;;;1.25;1.25;;;;;20.42;40.84;102227.25;5062155;28;45798;-93
2022/07/17 05:05:51;;;;;;;;;3.25;2.00;;;;;20.44;41.30;102219.25;5061885;28;45356;-93
2022/07/17 05:08:18;;;;;;;;;5.00;3.00;;;;;20.47;40.62;102224.41;5078783;28;45187;-93
2022/07/17 05:10:44;;;;;;;;;2.50;2.25;;;;;20.45;40.76;102227.09;5078617;27;47144;-93
2022/07/17 05:13:09;;;;;;;;;3.00;2.25;;;;;20.47;40.91;102229.69;5060863;28;45420;-92
2022/07/17 05:15:34;;;;;;;;;2.00;2.00;;;;;20.46;41.09;102228.81;5060799;28;45533;-93
2022/07/17 05:18:00;;;;;;;;;2.00;2.00;;;;;20.46;40.86;102220.88;5060840;28;45337;-92
2022/07/17 05:20:25;;;;;;;;;2.50;2.50;;;;;20.46;41.09;102225.31;5060245;28;46969;-92
2022/07/17 05:22:51;;;;;;;;;4.75;2.75;;;;;20.47;41.11;102234.97;5060673;28;45511;-93
2022/07/17 05:25:16;;;;;;;;;2.25;2.00;;;;;20.43;40.94;102228.97;5077753;28;45342;-92
2022/07/17 05:27:41;;;;;;;;;6.00;2.75;;;;;20.48;40.95;102234.03;5077291;28;45599;-92
2022/07/17 05:30:07;;;;;;;;;3.75;3.00;;;;;20.49;40.62;102235.75;5078088;28;49409;-92
2022/07/17 05:32:33;;;;;;;;;2.50;2.50;;;;;20.51;41.20;102228.59;5060593;28;45975;-92
2022/07/17 05:34:58;;;;;;;;;5.00;2.00;;;;;20.56;41.37;102234.53;5059873;28;45291;-92
2022/07/17 05:37:23;;;;;;;;;2.00;2.00;;;;;20.56;40.49;102223.09;5060470;27;45298;-92
2022/07/17 05:39:49;;;;;;;;;2.00;2.00;;;;;20.58;40.53;102230.03;5060267;28;54692;-92
2022/07/17 05:42:14;;;;;;;;;2.75;2.75;;;;;20.60;40.76;102227.31;5060225;28;45384;-92
2022/07/17 05:44:39;;;;;;;;;2.50;2.50;;;;;20.64;40.37;102224.47;5059700;28;53198;-92
2022/07/17 05:47:05;;;;;;;;;3.00;3.00;;;;;20.67;40.78;102236.69;5077220;28;45330;-91
2022/07/17 05:49:30;;;;;;;;;2.75;2.00;;;;;20.70;40.36;102236.53;5059419;28;57112;-93
2022/07/17 05:51:55;;;;;;;;;3.25;3.00;;;;;20.71;40.38;102229.47;5076697;27;63245;-92
2022/07/17 05:54:21;;;;;;;;;2.00;2.00;;;;;20.72;40.45;102234.69;5060101;28;45255;-93
2022/07/17 05:56:46;;;;;;;;;5.25;3.00;;;;;20.74;40.61;102238.09;5060327;28;45283;-93
2022/07/17 05:59:11;;;;;;;;;4.00;3.00;;;;;20.78;40.91;102244.13;5077919;28;61052;-92
2022/07/17 06:01:37;;;;;;;;;7.00;3.50;;;;;20.80;40.72;102244.91;5059663;28;55030;-93
2022/07/17 06:04:02;;;;;;;;;3.25;3.00;;;;;20.82;40.56;102240.38;5059992;28;45500;-92
2022/07/17 06:06:28;;;;;;;;;4.00;3.00;;;;;20.84;40.96;102243.84;5077116;28;45436;-91
2022/07/17 06:08:53;;;;;;;;;3.00;3.00;;;;;20.82;40.58;102228.03;5059870;28;57004;-92
2022/07/17 06:11:18;;;;;;;;;2.25;1.00;;;;;20.88;40.47;102234.81;5059786;28;49431;-92
2022/07/17 06:13:44;;;;;;;;;3.00;3.00;;;;;20.92;40.23;102236.38;5076986;28;45500;-92
2022/07/17 06:16:09;;;;;;;;;3.00;2.50;;;;;20.95;40.93;102236.22;5059606;28;55515;-92
2022/07/17 06:18:34;;;;;;;;;4.00;4.00;;;;;21.04;41.08;102232.25;5080288;28;45405;-92
2022/07/17 06:21:00;;;;;;;;;3.00;3.00;;;;;21.10;41.29;102236.38;5085671;28;45337;-93
2022/07/17 06:23:25;;;;;;;;;3.00;3.00;;;;;21.14;40.23;102235.31;5069686;28;47043;-92
2022/07/17 06:25:50;;;;;;;;;3.25;2.00;;;;;21.21;39.92;102234.94;5084053;27;45259;-92
2022/07/17 06:28:16;;;;;;;;;3.00;3.00;;;;;21.20;39.72;102230.56;5063265;28;48179;-91
2022/07/17 06:30:41;;;;;;;;;3.00;3.00;;;;;21.25;39.66;102230.34;5062530;28;45440;-90
2022/07/17 06:33:06;;;;;;;;;2.50;2.25;;;;;21.29;39.48;102226.59;5060462;28;65874;-92
2022/07/17 06:35:33;;;;;;;;;5.00;2.00;;;;;21.32;40.31;102236.16;5079172;27;45325;-91
2022/07/17 06:37:59;;;;;;;;;3.00;3.00;;;;;21.35;39.89;102230.72;5078371;28;45641;-92
2022/07/17 06:40:24;;;;;;;;;2.50;2.50;;;;;21.38;40.09;102226.13;5078585;27;45304;-92
2022/07/17 06:42:50;;;;;;;;;3.00;2.00;;;;;21.44;39.69;102224.97;5078786;27;45762;-91
2022/07/17 06:45:15;;;;;;;;;2.75;2.75;;;;;21.50;39.80;102227.31;5077491;27;59283;-92
2022/07/17 06:47:40;;;;;;;;;3.00;3.00;;;;;21.55;40.05;102221.81;5060052;27;47222;-92
2022/07/17 06:50:06;;;;;;;;;2.50;2.50;;;;;21.62;39.92;102223.19;5059684;28;53585;-93
2022/07/17 06:52:32;;;;;;;;;4.50;2.00;;;;;21.70;39.63;102222.78;5060762;28;45311;-92
2022/07/17 06:54:57;;;;;;;;;2.75;2.75;;;;;21.78;40.47;102224.09;5076144;28;49340;-92
2022/07/17 06:57:23;;;;;;;;;3.75;3.75;;;;;21.87;39.68;102228.06;5059743;28;47180;-93
2022/07/17 06:59:48;;;;;;;;;2.00;2.00;;;;;21.96;39.04;102222.25;5077010;28;45211;-92
2022/07/17 07:02:13;;;;;;;;;2.00;2.00;;;;;22.01;38.82;102220.22;5076343;28;45590;-92
2022/07/17 07:04:39;;;;;;;;;4.50;3.00;;;;;22.11;38.77;102219.72;5062814;27;49423;-92
2022/07/17 07:07:04;;;;;;;;;3.75;3.75;;;;;22.16;38.69;102221.19;5080576;28;45391;-92
2022/07/17 07:09:29;;;;;;;;;3.00;2.00;;;;;22.25;38.43;102227.78;5062443;28;54791;-92
2022/07/17 07:11:55;;;;;;;;;3.50;3.00;;;;;22.33;39.00;102222.09;5062944;28;45373;-92
2022/07/17 07:14:20;;;;;;;;;2.25;2.25;;;;;22.44;38.89;102225.00;5079896;27;45397;-92
2022/07/17 07:16:46;;;;;;;;;2.75;2.00;;;;;22.52;38.46;102235.19;5062486;27;47068;-92
2022/07/17 07:19:11;;;;;;;;;3.00;2.00;;;;;22.60;38.21;102227.66;5078347;28;75456;-92
2022/07/17 07:21:37;;;;;;;;;2.00;2.00;;;;;22.70;38.46;102228.84;5062945;27;45886;-93
2022/07/17 07:24:03;;;;;;;;;3.00;3.00;;;;;22.81;38.13;102229.09;5079405;27;45501;-92
2022/07/17 07:26:29;;;;;;;;;2.75;2.25;;;;;22.94;37.96;102231.06;5062397;28;48258;-92
2022/07/17 07:28:55;;;;;;;;;2.75;2.00;;;;;23.06;37.35;102229.50;5079546;27;45355;-92
2022/07/17 07:31:20;;;;;;;;;3.25;2.00;;;;;23.16;36.94;102226.22;5058875;28;45295;-92
2022/07/17 07:33:46;;;;;;;;;2.00;2.00;;;;;23.27;37.16;102230.91;5060315;28;45471;-92
2022/07/17 07:36:11;;;;;;;;;2.50;1.50;;;;;23.39;36.81;102224.00;5042014;28;47209;-92
2022/07/17 07:38:37;;;;;;;;;2.25;2.25;;;;;23.48;36.55;102222.63;5060270;28;45434;-91
2022/07/17 07:41:03;;;;;;;;;1.50;1.50;;;;;23.55;36.21;102226.59;5076085;27;45380;-92
2022/07/17 07:43:28;;;;;;;;;3.50;2.25;;;;;23.60;35.98;102224.50;5075494;28;45341;-92
2022/07/17 07:45:54;;;;;;;;;1.50;1.50;;;;;23.63;36.27;102219.03;5075352;28;62820;-92
2022/07/17 07:48:19;;;;;;;;;2.75;2.75;;;;;23.70;36.27;102209.72;5075639;27;46156;-91
2022/07/17 07:50:44;;;;;;;;;2.75;2.75;;;;;23.77;35.99;102219.03;5058532;28;47717;-92
2022/07/17 07:53:10;;;;;;;;;3.25;2.00;;;;;23.85;36.17;102217.75;5075145;27;53314;-91
2022/07/17 07:55:35;;;;;;;;;1.50;1.50;;;;;23.95;36.08;102219.72;5075802;27;45412;-91
2022/07/17 07:58:10;;;;;;;;;2.50;2.00;;;;;24.05;35.59;102221.81;5075735;28;58269;-92
2022/07/17 08:00:35;;;;;;;;;3.75;3.75;;;;;24.13;35.75;102217.72;5059463;28;45354;-93
2022/07/17 08:03:01;;;;;;;;;2.50;2.50;;;;;24.20;36.01;102217.31;5058926;28;45343;-93
2022/07/17 08:05:26;;;;;;;;;3.50;1.00;;;;;24.28;35.38;102217.72;5075545;28;47111;-93
2022/07/17 08:07:52;;;;;;;;;2.75;2.75;;;;;24.39;35.09;102219.69;5075777;27;45831;-93
2022/07/17 08:10:17;;;;;;;;;1.25;1.25;;;;;24.49;35.21;102228.78;5074752;28;65224;-93
2022/07/17 08:12:43;;;;;;;;;2.00;2.00;;;;;24.59;35.01;102226.41;5075211;28;45523;-93
2022/07/17 08:15:09;;;;;;;;;4.00;2.00;;;;;24.65;34.64;102218.88;5058471;28;46964;-93
2022/07/17 08:17:34;;;;;;;;;2.00;2.00;;;;;24.77;34.65;102225.19;5060199;28;45356;-91
2022/07/17 08:20:00;;;;;;;;;2.00;2.00;;;;;24.87;34.08;102228.97;5075581;28;48298;-93
2022/07/17 08:22:25;;;;;;;;;4.50;3.00;;;;;24.97;33.94;102221.22;5060634;28;45465;-92
2022/07/17 08:24:50;;;;;;;;;4.00;2.50;;;;;25.08;33.28;102225.84;5076862;28;46382;-94
2022/07/17 08:27:16;;;;;;;;;3.25;2.00;;;;;25.17;33.78;102225.22;5079621;28;45426;-92
2022/07/17 08:29:42;;;;;;;;;1.50;1.50;;;;;25.26;33.96;102221.97;5077959;27;45469;-92
2022/07/17 08:32:07;;;;;;;;;2.50;2.50;;;;;25.37;33.23;102228.34;5091034;27;72109;-92
2022/07/17 08:34:32;;;;;;;;;2.00;2.00;;;;;25.46;33.23;102222.41;5073279;28;47140;-92
2022/07/17 08:36:58;;;;;;;;;2.00;2.00;;;;;25.57;32.89;102225.16;5070528;28;45477;-92
2022/07/17 08:39:23;;;;;;;;;2.00;2.00;;;;;25.64;32.42;102231.78;5085147;27;45393;-92
2022/07/17 08:41:49;;;;;;;;;1.25;1.25;;;;;25.71;32.68;102221.56;5070775;28;45444;-93
2022/07/17 08:44:14;;;;;;;;;4.00;3.00;;;;;25.79;32.91;102219.19;5077476;28;47085;-93
2022/07/17 08:46:39;;;;;;;;;1.00;1.00;;;;;25.85;32.40;102220.56;5073693;28;45263;-92
2022/07/17 08:49:06;;;;;;;;;3.75;3.00;;;;;25.93;32.32;102212.94;5049662;28;57837;-92
2022/07/17 08:51:32;;;;;;;;;2.50;1.00;;;;;26.03;32.54;102211.31;5060525;28;45526;-92
2022/07/17 08:53:58;;;;;;;;;2.00;2.00;;;;;26.14;31.45;102215.03;5060003;28;47006;-92
2022/07/17 08:56:24;;;;;;;;;2.75;1.75;;;;;26.24;31.40;102219.59;5058304;28;45420;-92
2022/07/17 08:58:50;;;;;;;;;2.00;2.00;;;;;26.34;31.06;102222.44;5058532;28;45250;-92
2022/07/17 09:01:17;;;;;;;;;2.50;1.25;;;;;26.42;30.99;102213.88;5058375;28;45188;-91
2022/07/17 09:04:00;;;;;;;;;4.25;3.00;;;;;26.48;30.94;102216.09;5040910;28;47192;-90
2022/07/17 09:06:26;;;;;;;;;3.00;3.00;;;;;26.60;30.39;102220.56;5074350;27;45267;-93
2022/07/17 09:09:10;;;;;;;;;1.50;1.00;;;;;26.72;30.66;102223.28;5041090;28;45302;-92
2022/07/17 09:11:44;;;;;;;;;3.00;1.75;;;;;26.82;30.50;102221.66;5057450;28;45483;-93
2022/07/17 09:14:09;;;;;;;;;2.25;2.25;;;;;26.89;29.82;102212.19;5057528;28;47235;-92
2022/07/17 09:16:36;;;;;;;;;2.00;2.00;;;;;26.99;30.08;102221.22;5057218;28;46121;-92
2022/07/17 09:19:02;;;;;;;;;2.00;2.00;;;;;27.08;29.49;102216.13;5074242;28;45389;-91
2022/07/17 09:21:28;;;;;;;;;2.00;2.00;;;;;27.16;29.85;102214.59;5073898;28;57334;-90
2022/07/17 09:24:12;;;;;;;;;1.25;1.25;;;;;27.26;29.10;102212.09;5057393;28;47293;-93
2022/07/17 09:26:44;;;;;;;;;2.00;2.00;;;;;27.37;29.45;102213.94;5071951;28;68200;-92
2022/07/17 09:29:11;;;;;;;;;3.00;3.00;;;;;27.47;29.19;102212.28;5074592;28;45383;-92
2022/07/17 09:31:37;;;;;;;;;2.00;2.00;;;;;27.57;29.24;102215.94;5072410;27;45456;-91
2022/07/17 09:34:03;;;;;;;;;3.75;2.25;;;;;27.68;28.94;102225.78;5094296;27;46986;-90
2022/07/17 09:36:28;;;;;;;;;2.00;1.50;;;;;27.76;28.16;102217.16;5078363;27;45314;-93
2022/07/17 09:38:55;;;;;;;;;1.25;1.25;;;;;27.85;28.15;102224.44;5076551;28;69611;-92
2022/07/17 09:41:22;;;;;;;;;1.50;1.50;;;;;27.95;27.61;102211.22;5077291;27;45392;-93
2022/07/17 09:43:57;;;;;;;;;1.25;1.25;;;;;28.02;27.16;102207.09;5078758;27;46526;-93
2022/07/17 09:46:26;;;;;;;;;2.00;2.00;;;;;28.10;26.91;102212.69;5077276;28;45753;-93
2022/07/17 09:48:55;;;;;;;;;2.00;2.00;;;;;28.17;26.85;102208.50;5076968;28;45467;-92
2022/07/17 09:51:30;;;;;;;;;1.50;1.00;;;;;28.27;26.90;102223.84;5078278;27;45393;-92
2022/07/17 09:53:58;;;;;;;;;0.25;0.25;;;;;28.32;27.26;102213.59;5076687;28;46323;-93
2022/07/17 09:56:25;;;;;;;;;1.25;1.00;;;;;28.39;26.99;102215.66;5076998;28;45274;-92
2022/07/17 09:58:53;;;;;;;;;2.25;2.25;;;;;28.39;27.74;102215.66;5077143;27;45319;-92
2022/07/17 10:01:19;;;;;;;;;3.00;3.00;;;;;28.43;26.84;102207.38;5076945;28;45218;-92
2022/07/17 10:03:45;;;;;;;;;3.25;1.25;;;;;28.53;26.68;102211.06;5059853;28;47997;-92
2022/07/17 10:06:11;;;;;;;;;3.00;1.75;;;;;28.62;26.22;102214.78;5077006;28;45330;-93
2022/07/17 10:08:37;;;;;;;;;1.50;0.50;;;;;28.74;25.78;102211.09;5076350;28;51086;-93
2022/07/17 10:11:05;;;;;;;;;2.25;1.00;;;;;28.80;25.53;102215.09;5077311;27;45668;-92
2022/07/17 10:13:31;;;;;;;;;2.00;2.00;;;;;28.85;25.18;102219.06;5093752;27;47627;-91
2022/07/17 10:15:56;;;;;;;;;1.75;1.75;;;;;28.88;25.41;102216.16;5076883;28;45415;-93
2022/07/17 10:18:34;;;;;;;;;3.50;2.00;;;;;28.92;24.98;102206.88;5077258;28;45368;-93
2022/07/17 10:21:09;;;;;;;;;2.25;1.25;;;;;29.00;25.71;102221.47;5076931;27;45444;-92
2022/07/17 10:23:35;;;;;;;;;3.00;2.00;;;;;29.04;25.44;102222.91;5076233;27;48141;-92
2022/07/17 10:26:01;;;;;;;;;2.00;2.00;;;;;29.08;25.11;102222.50;5076396;28;45412;-92
2022/07/17 10:28:46;;;;;;;;;2.00;2.00;;;;;29.12;24.00;102221.28;5059929;28;45401;-93
2022/07/17 10:31:30;;;;;;;;;1.25;1.25;;;;;29.18;24.76;102227.97;5056547;28;45580;-92
2022/07/17 10:33:59;;;;;;;;;0.75;0.75;;;;;29.22;24.74;102226.72;5056802;28;46007;-92
2022/07/17 10:36:42;;;;;;;;;0.00;0.00;;;;;29.27;24.73;102232.56;5039529;28;45658;-92
2022/07/17 10:39:16;;;;;;;;;1.00;1.00;;;;;29.33;24.33;102229.34;5038902;28;45307;-94
2022/07/17 10:41:42;;;;;;;;;1.50;1.25;;;;;29.37;24.40;102231.78;5040225;28;45566;-92
2022/07/17 10:44:08;;;;;;;;;0.00;0.00;;;;;29.37;24.61;102221.88;5056149;28;46356;-94
2022/07/17 10:46:34;;;;;;;;;1.00;1.00;;;;;29.40;24.61;102226.13;5039308;28;45579;-93
2022/07/17 10:49:03;;;;;;;;;2.00;1.25;;;;;29.42;24.28;102225.03;5056950;28;45363;-93
2022/07/17 10:51:29;;;;;;;;;2.25;1.25;;;;;29.45;24.24;102224.75;5057199;28;45401;-92
2022/07/17 10:54:01;;;;;;;;;0.25;0.25;;;;;29.49;24.13;102217.28;5038639;28;47524;-93
2022/07/17 10:56:27;;;;;;;;;2.00;1.50;;;;;29.53;23.36;102224.06;5057201;28;45684;-94
2022/07/17 10:58:53;;;;;;;;;1.00;1.00;;;;;29.56;22.90;102221.13;5039421;28;45310;-92
2022/07/17 11:01:20;;;;;;;;;1.25;1.00;;;;;29.59;23.07;102215.50;5039717;28;45590;-93
2022/07/17 11:03:48;;;;;;;;;0.00;0.00;;;;;29.65;22.72;102219.50;5039182;28;47113;-92
2022/07/17 11:06:16;;;;;;;;;1.00;1.00;;;;;29.72;23.37;102221.50;5055623;28;45808;-91
2022/07/17 11:08:51;;;;;;;;;2.00;2.00;;;;;29.85;22.93;102212.41;5055571;28;45373;-92
2022/07/17 11:11:19;;;;;;;;;2.00;0.00;;;;;30.00;22.43;102215.56;5056144;28;45398;-93
2022/07/17 11:13:45;;;;;;;;;0.75;0.75;;;;;30.06;22.44;102210.50;5056230;28;47383;-92
2022/07/17 11:16:11;;;;;;;;;2.00;1.00;;;;;30.16;22.20;102209.66;5039018;28;45410;-92
2022/07/17 11:18:47;;;;;;;;;0.75;0.75;;;;;30.30;21.70;102210.13;5056301;28;45298;-92
2022/07/17 11:21:13;;;;;;;;;2.50;1.00;;;;;30.47;22.58;102210.47;5055508;28;45432;-93
2022/07/17 11:23:54;;;;;;;;;1.75;1.00;;;;;30.73;22.42;102204.56;5039242;28;47424;-94